Terminal Aerodrome Forecast
Issued by NWS Dallas/Fort Worth, TX

Home | Current Version | Previous Version | Text Only | Print | Product List | Glossary On
Versions: 1 2 3 4 5 6 7 8 9 10 11 12 13 14 15 16 17 18 19 20 21 22 23 24 25 26 27 28 29 30 31
099
FTUS44 KFWD 070909 AAA
TAFACT
TAF AMD
KACT 070909Z 0709/0806 35005KT P6SM OVC025
     FM071700 14006KT P6SM BKN035
     FM080000 35014KT P6SM BKN015
     FM080400 36016G26KT P6SM -DZ BKN025=

USA.gov is the U.S. government's official web portal to all federal, state and local government web resources and services.